Observation data for Saint Lawrence on 12/08/2018      Previous  Date       Current Mesonet Observations  Soil Data  Daily Summary Page  Observations in Plain Language
KST1 080600Z 01010KT 02/01 A3022 RMK A01 T00160010  RH  096%=      5-min Rain = 0.01
KST1 080605Z 01010KT 02/01 A3022 RMK A01 T00160009  RH  096%=      5-min Rain = 0.01
KST1 080610Z 01009KT 02/01 A3022 RMK A01 T00170010  RH  096%=      5-min Rain = 0
KST1 080615Z 01008KT 02/01 A3022 RMK A01 T00170010  RH  096%=      5-min Rain = 0.01
KST1 080620Z 01008KT 02/01 A3022 RMK A01 T00170010  RH  096%=      5-min Rain = 0.01
KST1 080625Z 01009KT 02/01 A3022 RMK A01 T00170010  RH  096%=      5-min Rain = 0.01
KST1 080630Z 01011KT 02/01 A3022 RMK A01 T00160009  RH  096%=      5-min Rain = 0.02
KST1 080635Z 01011KT 02/01 A3022 RMK A01 T00150008  RH  096%=      5-min Rain = 0.01
KST1 080640Z 01010KT 02/01 A3022 RMK A01 T00150009  RH  096%=      5-min Rain = 0.01
KST1 080645Z 02011KT 02/01 A3021 RMK A01 T00150008  RH  096%=      5-min Rain = 0.01
KST1 080650Z 02012KT 01/01 A3021 RMK A01 T00140008  RH  096%=      5-min Rain = 0.01
KST1 080655Z 02010KT 02/01 A3021 RMK A01 T00150008  RH  096%=      5-min Rain = 0.02
KST1 080700Z 01012KT 02/01 A302 RMK A01 T00150008  RH  096%=      5-min Rain = 0
KST1 080705Z 01012KT 02/01 A302 RMK A01 T00150008  RH  096%=      5-min Rain = 0.01
KST1 080710Z 02011KT 02/01 A302 RMK A01 T00150008  RH  096%=      5-min Rain = 0
KST1 080715Z 02012KT 01/01 A302 RMK A01 T00140007  RH  096%=      5-min Rain = 0.01
KST1 080720Z 02012KT 01/01 A302 RMK A01 T00140007  RH  096%=      5-min Rain = 0
KST1 080725Z 01012KT 01/01 A302 RMK A01 T00140007  RH  096%=      5-min Rain = 0.01
KST1 080730Z 01013KT 01/01 A3019 RMK A01 T00130006  RH  096%=      5-min Rain = 0
KST1 080735Z 01012KT 01/01 A3019 RMK A01 T00140006  RH  096%=      5-min Rain = 0.01
KST1 080740Z 01010KT 01/01 A302 RMK A01 T00140007  RH  096%=      5-min Rain = 0.01
KST1 080745Z 01010KT 01/01 A302 RMK A01 T00130006  RH  096%=      5-min Rain = 0
KST1 080750Z 01011KT 01/01 A302 RMK A01 T00130005  RH  096%=      5-min Rain = 0.01
KST1 080755Z 01011KT 01/01 A302 RMK A01 T00120005  RH  096%=      5-min Rain = 0.01
KST1 080800Z 01010KT 01/01 A3021 RMK A01 T00130005  RH  096%=      5-min Rain = 0
KST1 080805Z 00008KT 01/01 A3021 RMK A01 T00130005  RH  096%=      5-min Rain = 0
KST1 080810Z 36008KT 01/01 A3021 RMK A01 T00140006  RH  096%=      5-min Rain = 0
KST1 080815Z 36009KT 01/01 A3021 RMK A01 T00140006  RH  096%=      5-min Rain = 0
KST1 080820Z 36009KT 01/01 A3021 RMK A01 T00140006  RH  096%=      5-min Rain = 0.01
KST1 080825Z 36010KT 01/01 A3021 RMK A01 T00140006  RH  095%=      5-min Rain = 0
KST1 080830Z 00010KT 01/01 A3021 RMK A01 T00130005  RH  095%=      5-min Rain = 0.01
KST1 080835Z 01009KT 01/01 A302 RMK A01 T00140005  RH  095%=      5-min Rain = 0
KST1 080840Z 01009KT 01/01 A302 RMK A01 T00130005  RH  095%=      5-min Rain = 0.01
KST1 080845Z 02009KT 01/01 A3019 RMK A01 T00130005  RH  095%=      5-min Rain = 0.02
KST1 080850Z 03011KT 01/01 A3019 RMK A01 T00130005  RH  096%=      5-min Rain = 0.01
KST1 080855Z 03011KT 01/01 A3019 RMK A01 T00130005  RH  096%=      5-min Rain = 0.01
KST1 080900Z 03012KT 01/01 A3019 RMK A01 T00130005  RH  096%=      5-min Rain = 0
KST1 080905Z 03012KT 01/01 A3019 RMK A01 T00130005  RH  096%=      5-min Rain = 0
KST1 080910Z 03012KT 01/01 A3019 RMK A01 T00130005  RH  096%=      5-min Rain = 0.01
KST1 080915Z 02011KT 01/01 A3019 RMK A01 T00130005  RH  096%=      5-min Rain = 0
KST1 080920Z 01011KT 01/01 A3019 RMK A01 T00130006  RH  096%=      5-min Rain = 0
KST1 080925Z 02012KT 01/00 A3019 RMK A01 T00120004  RH  096%=      5-min Rain = 0
KST1 080930Z 02010G15KT 01/01 A3019 RMK A01 T00120005  RH  096%=      5-min Rain = 0
KST1 080935Z 03011KT 01/00 A3019 RMK A01 T00110003  RH  096%=      5-min Rain = 0
KST1 080940Z 03010KT 01/00 A3019 RMK A01 T00120004  RH  096%=      5-min Rain = 0
KST1 080945Z 02009KT 01/00 A302 RMK A01 T00120004  RH  096%=      5-min Rain = 0.01
KST1 080950Z 01010KT 01/00 A302 RMK A01 T00110003  RH  096%=      5-min Rain = 0
KST1 080955Z 01010KT 01/00 A302 RMK A01 T00110003  RH  095%=      5-min Rain = 0
KST1 081000Z 02011KT 01/00 A302 RMK A01 T00110003  RH  095%=      5-min Rain = 0
KST1 081005Z 02011KT 01/00 A302 RMK A01 T00110002  RH  095%=      5-min Rain = 0.01
KST1 081010Z 02009KT 01/00 A302 RMK A01 T00110003  RH  095%=      5-min Rain = 0
KST1 081015Z 01008KT 01/00 A3021 RMK A01 T00120003  RH  095%=      5-min Rain = 0.01
KST1 081020Z 00008KT 01/00 A3021 RMK A01 T00120003  RH  095%=      5-min Rain = 0
KST1 081025Z 36008KT 01/00 A3021 RMK A01 T00120003  RH  095%=      5-min Rain = 0.01
KST1 081030Z 36008KT 01/00 A302 RMK A01 T00120003  RH  095%=      5-min Rain = 0
KST1 081035Z 36007KT 01/00 A302 RMK A01 T00120004  RH  095%=      5-min Rain = 0
KST1 081040Z 36009KT 01/00 A302 RMK A01 T00110003  RH  095%=      5-min Rain = 0
KST1 081045Z 00009KT 01/00 A302 RMK A01 T00110003  RH  095%=      5-min Rain = 0
KST1 081050Z 01009KT 01/00 A302 RMK A01 T00110003  RH  095%=      5-min Rain = 0
KST1 081055Z 01008KT 01/00 A302 RMK A01 T00110003  RH  095%=      5-min Rain = 0.01
KST1 081100Z 01008KT 01/00 A302 RMK A01 T00110003  RH  095%=      5-min Rain = 0
KST1 081105Z 01007KT 01/00 A302 RMK A01 T00120004  RH  095%=      5-min Rain = 0
KST1 081110Z 00006KT 01/00 A302 RMK A01 T00120004  RH  096%=      5-min Rain = 0.01
KST1 081115Z 00007KT 01/00 A302 RMK A01 T00110003  RH  096%=      5-min Rain = 0.01
KST1 081120Z 00007KT 01/00 A3021 RMK A01 T00110004  RH  096%=      5-min Rain = 0.01
KST1 081125Z 36008KT 01/00 A3021 RMK A01 T00120004  RH  096%=      5-min Rain = 0
KST1 081130Z 36008KT 01/00 A3021 RMK A01 T00110003  RH  096%=      5-min Rain = 0
KST1 081135Z 00007KT 01/00 A3021 RMK A01 T00110004  RH  096%=      5-min Rain = 0
KST1 081140Z 00009KT 01/00 A3021 RMK A01 T00110003  RH  096%=      5-min Rain = 0
KST1 081145Z 01008KT 01/00 A3022 RMK A01 T00110004  RH  096%=      5-min Rain = 0
KST1 081150Z 01008KT 01/00 A3022 RMK A01 T00110004  RH  096%=      5-min Rain = 0
KST1 081155Z 01008KT 01/00 A3022 RMK A01 T00120004  RH  096%=      5-min Rain = 0
KST1 081200Z 00007KT 01/00 A3022 RMK A01 T00120004  RH  096%=      5-min Rain = 0
KST1 081205Z 00007KT 01/00 A3022 RMK A01 T00120004  RH  096%=      5-min Rain = 0
KST1 081210Z 36007KT 01/01 A3023 RMK A01 T00120005  RH  096%=      5-min Rain = 0
KST1 081215Z 36007KT 01/01 A3023 RMK A01 T00120005  RH  096%=      5-min Rain = 0
KST1 081220Z 01008KT 01/01 A3023 RMK A01 T00120005  RH  096%=      5-min Rain = 0
KST1 081225Z 01008KT 01/00 A3023 RMK A01 T00120004  RH  096%=      5-min Rain = 0
KST1 081230Z 01008KT 01/00 A3023 RMK A01 T00120004  RH  095%=      5-min Rain = 0
KST1 081235Z 00008KT 01/00 A3023 RMK A01 T00120004  RH  095%=      5-min Rain = 0
KST1 081240Z 01008KT 01/00 A3023 RMK A01 T00120004  RH  095%=      5-min Rain = 0
KST1 081245Z 01008KT 01/00 A3024 RMK A01 T00120004  RH  095%=      5-min Rain = 0
KST1 081250Z 36007KT 01/00 A3024 RMK A01 T00120004  RH  096%=      5-min Rain = 0
KST1 081255Z 35007KT 01/00 A3024 RMK A01 T00120004  RH  096%=      5-min Rain = 0
KST1 081300Z 35008KT 01/00 A3024 RMK A01 T00120004  RH  096%=      5-min Rain = 0
KST1 081305Z 36010KT 01/00 A3024 RMK A01 T00110003  RH  096%=      5-min Rain = 0
KST1 081310Z 00010KT 01/00 A3024 RMK A01 T00110003  RH  096%=      5-min Rain = 0
KST1 081315Z 00011KT 01/00 A3025 RMK A01 T00100003  RH  096%=      5-min Rain = 0
KST1 081320Z 01010KT 01/00 A3025 RMK A01 T00100003  RH  096%=      5-min Rain = 0.01
KST1 081325Z 00010KT 01/00 A3025 RMK A01 T00100003  RH  096%=      5-min Rain = 0
KST1 081330Z 00009KT 01/00 A3025 RMK A01 T00110004  RH  096%=      5-min Rain = 0
KST1 081335Z 00010KT 01/00 A3025 RMK A01 T00110004  RH  096%=      5-min Rain = 0
KST1 081340Z 01010KT 01/00 A3025 RMK A01 T00110004  RH  096%=      5-min Rain = 0
KST1 081345Z 02010KT 01/00 A3026 RMK A01 T00100004  RH  096%=      5-min Rain = 0
KST1 081350Z 01011KT 01/00 A3026 RMK A01 T00090002  RH  096%=      5-min Rain = 0
KST1 081355Z 01010KT 01/00 A3026 RMK A01 T00090002  RH  096%=      5-min Rain = 0
KST1 081400Z 01010KT 01/00 A3026 RMK A01 T00080001  RH  096%=      5-min Rain = 0
KST1 081405Z 01010KT 01/00 A3026 RMK A01 T00080001  RH  096%=      5-min Rain = 0
KST1 081410Z 02010KT 01/00 A3027 RMK A01 T00080001  RH  096%=      5-min Rain = 0
KST1 081415Z 02009KT 01/00 A3027 RMK A01 T00080001  RH  096%=      5-min Rain = 0
KST1 081420Z 01008KT 01/00 A3027 RMK A01 T00090002  RH  096%=      5-min Rain = 0
KST1 081425Z 00007KT 01/00 A3027 RMK A01 T00100003  RH  096%=      5-min Rain = 0
KST1 081430Z 36007KT 01/00 A3028 RMK A01 T00100003  RH  096%=      5-min Rain = 0
KST1 081435Z 35009KT 01/00 A3028 RMK A01 T00100003  RH  096%=      5-min Rain = 0
KST1 081440Z 36010KT 01/00 A3028 RMK A01 T00090002  RH  096%=      5-min Rain = 0
KST1 081445Z 00009KT 01/00 A3028 RMK A01 T00100003  RH  096%=      5-min Rain = 0
KST1 081450Z 00009KT 01/00 A3028 RMK A01 T00100002  RH  096%=      5-min Rain = 0
KST1 081455Z 00008KT 01/00 A3029 RMK A01 T00100003  RH  096%=      5-min Rain = 0
KST1 081500Z 36008KT 01/00 A3029 RMK A01 T00100003  RH  096%=      5-min Rain = 0.01
KST1 081505Z 36008KT 01/00 A3029 RMK A01 T00100003  RH  096%=      5-min Rain = 0
KST1 081510Z 36009KT 01/00 A3029 RMK A01 T00110003  RH  096%=      5-min Rain = 0
KST1 081515Z 00009KT 01/00 A3029 RMK A01 T00100003  RH  096%=      5-min Rain = 0
KST1 081520Z 00009KT 01/00 A3029 RMK A01 T00110003  RH  096%=      5-min Rain = 0
KST1 081525Z 00009KT 01/00 A303 RMK A01 T00110003  RH  096%=      5-min Rain = 0
KST1 081530Z 00008KT 01/01 A303 RMK A01 T00120005  RH  096%=      5-min Rain = 0
KST1 081535Z 01009KT 01/00 A303 RMK A01 T00120004  RH  096%=      5-min Rain = 0
KST1 081540Z 01009KT 01/01 A303 RMK A01 T00120005  RH  096%=      5-min Rain = 0
KST1 081545Z 00008KT 01/01 A303 RMK A01 T00130005  RH  096%=      5-min Rain = 0
KST1 081550Z 00007KT 02/01 A303 RMK A01 T00150008  RH  096%=      5-min Rain = 0
KST1 081555Z 36008KT 02/01 A3031 RMK A01 T00150007  RH  096%=      5-min Rain = 0.01
KST1 081600Z 35008KT 01/01 A3031 RMK A01 T00140007  RH  096%=      5-min Rain = 0
KST1 081605Z 35009KT 02/01 A3031 RMK A01 T00160008  RH  096%=      5-min Rain = 0
KST1 081610Z 35009KT 02/01 A3031 RMK A01 T00160009  RH  096%=      5-min Rain = 0
KST1 081615Z 35009KT 02/01 A3031 RMK A01 T00160008  RH  096%=      5-min Rain = 0
KST1 081620Z 35009KT 02/01 A3031 RMK A01 T00160008  RH  096%=      5-min Rain = 0
KST1 081625Z 35008KT 02/01 A3031 RMK A01 T00170009  RH  095%=      5-min Rain = 0
KST1 081630Z 35008KT 02/01 A3031 RMK A01 T00170009  RH  095%=      5-min Rain = 0
KST1 081635Z 35009KT 02/01 A3031 RMK A01 T00160008  RH  095%=      5-min Rain = 0
KST1 081640Z 35007KT 02/01 A3031 RMK A01 T00180010  RH  095%=      5-min Rain = 0
KST1 081645Z 35008KT 02/01 A3031 RMK A01 T00180010  RH  095%=      5-min Rain = 0
KST1 081650Z 35008KT 02/01 A3031 RMK A01 T00180009  RH  095%=      5-min Rain = 0
KST1 081655Z 35008KT 02/01 A3031 RMK A01 T00190010  RH  095%=      5-min Rain = 0
KST1 081700Z 34009KT 02/01 A3031 RMK A01 T00190010  RH  095%=      5-min Rain = 0
KST1 081705Z 35010KT 02/01 A3031 RMK A01 T00170008  RH  095%=      5-min Rain = 0.01
KST1 081710Z 35009KT 02/01 A3031 RMK A01 T00190010  RH  095%=      5-min Rain = 0
KST1 081715Z 35009KT 02/01 A3031 RMK A01 T00190010  RH  095%=      5-min Rain = 0
KST1 081720Z 35009KT 02/01 A3031 RMK A01 T00180009  RH  095%=      5-min Rain = 0
KST1 081725Z 34010KT 02/01 A3031 RMK A01 T00190010  RH  095%=      5-min Rain = 0
KST1 081730Z 34009KT 02/01 A3031 RMK A01 T00200011  RH  095%=      5-min Rain = 0
KST1 081735Z 35009KT 02/01 A3031 RMK A01 T00210012  RH  095%=      5-min Rain = 0
KST1 081740Z 35011KT 02/01 A3031 RMK A01 T00190010  RH  095%=      5-min Rain = 0
KST1 081745Z 35011KT 02/01 A3031 RMK A01 T00190011  RH  095%=      5-min Rain = 0
KST1 081750Z 34012KT 02/01 A3031 RMK A01 T00200011  RH  095%=      5-min Rain = 0
KST1 081755Z 34012KT 02/01 A3031 RMK A01 T00190009  RH  095%=      5-min Rain = 0
KST1 081800Z 35011KT 02/01 A303 RMK A01 T00200010  RH  095%=      5-min Rain = 0
KST1 081805Z 35011KT 02/01 A303 RMK A01 T00210011  RH  095%=      5-min Rain = 0
KST1 081810Z 34011KT 02/01 A303 RMK A01 T00200010  RH  095%=      5-min Rain = 0
KST1 081815Z 35012KT 02/01 A303 RMK A01 T00200011  RH  094%=      5-min Rain = 0
KST1 081820Z 35011KT 02/01 A303 RMK A01 T00200010  RH  094%=      5-min Rain = 0
KST1 081825Z 34011KT 02/01 A303 RMK A01 T00220011  RH  094%=      5-min Rain = 0
KST1 081830Z 34012KT 02/01 A303 RMK A01 T00210010  RH  094%=      5-min Rain = 0
KST1 081835Z 34012KT 02/01 A3029 RMK A01 T00210010  RH  093%=      5-min Rain = 0
KST1 081840Z 34012KT 02/01 A3029 RMK A01 T00210009  RH  093%=      5-min Rain = 0
KST1 081845Z 34011KT 02/01 A3029 RMK A01 T00220010  RH  093%=      5-min Rain = 0
KST1 081850Z 35011KT 02/01 A3028 RMK A01 T00230011  RH  093%=      5-min Rain = 0
KST1 081855Z 35011KT 02/01 A3028 RMK A01 T00220011  RH  093%=      5-min Rain = 0
KST1 081900Z 35009KT 02/01 A3028 RMK A01 T00240012  RH  093%=      5-min Rain = 0
KST1 081905Z 36010KT 02/01 A3027 RMK A01 T00230011  RH  093%=      5-min Rain = 0
KST1 081910Z 35011KT 02/01 A3027 RMK A01 T00230010  RH  093%=      5-min Rain = 0
KST1 081915Z 35010KT 02/01 A3027 RMK A01 T00240011  RH  092%=      5-min Rain = 0
KST1 081920Z 34011KT 03/01 A3027 RMK A01 T00260011  RH  092%=      5-min Rain = 0
KST1 081925Z 34010KT 03/01 A3027 RMK A01 T00260012  RH  091%=      5-min Rain = 0
KST1 081930Z 34011KT 03/01 A3027 RMK A01 T00280012  RH  091%=      5-min Rain = 0
KST1 081935Z 33010KT 03/01 A3027 RMK A01 T00300013  RH  090%=      5-min Rain = 0
KST1 081940Z 34011KT 03/01 A3026 RMK A01 T00310014  RH  090%=      5-min Rain = 0
KST1 081945Z 35010KT 03/01 A3026 RMK A01 T00310013  RH  090%=      5-min Rain = 0
KST1 081950Z 35010KT 03/01 A3026 RMK A01 T00300014  RH  090%=      5-min Rain = 0
KST1 081955Z 34011KT 03/02 A3026 RMK A01 T00320015  RH  090%=      5-min Rain = 0
KST1 082000Z 34011KT 03/01 A3026 RMK A01 T00300013  RH  090%=      5-min Rain = 0
KST1 082005Z 35011KT 03/01 A3026 RMK A01 T00300013  RH  090%=      5-min Rain = 0
KST1 082010Z 34010KT 03/01 A3026 RMK A01 T00310013  RH  089%=      5-min Rain = 0
KST1 082015Z 34011KT 03/01 A3026 RMK A01 T00320014  RH  089%=      5-min Rain = 0
KST1 082020Z 34010KT 03/02 A3026 RMK A01 T00340015  RH  088%=      5-min Rain = 0
KST1 082025Z 35011KT 03/01 A3026 RMK A01 T00340014  RH  088%=      5-min Rain = 0
KST1 082030Z 34010KT 03/02 A3026 RMK A01 T00340015  RH  089%=      5-min Rain = 0
KST1 082035Z 33010KT 03/02 A3025 RMK A01 T00340016  RH  089%=      5-min Rain = 0
KST1 082040Z 34010KT 03/02 A3025 RMK A01 T00340015  RH  088%=      5-min Rain = 0
KST1 082045Z 34010KT 04/02 A3026 RMK A01 T00350016  RH  088%=      5-min Rain = 0
KST1 082050Z 34011KT 04/02 A3026 RMK A01 T00350015  RH  088%=      5-min Rain = 0
KST1 082055Z 35011KT 04/02 A3026 RMK A01 T00350015  RH  088%=      5-min Rain = 0
KST1 082100Z 34010KT 04/02 A3026 RMK A01 T00350015  RH  088%=      5-min Rain = 0
KST1 082105Z 34009KT 04/02 A3025 RMK A01 T00360016  RH  088%=      5-min Rain = 0
KST1 082110Z 34009KT 04/02 A3025 RMK A01 T00370016  RH  087%=      5-min Rain = 0
KST1 082115Z 35010KT 04/02 A3025 RMK A01 T00360015  RH  087%=      5-min Rain = 0
KST1 082120Z 35010KT 04/01 A3025 RMK A01 T00370014  RH  086%=      5-min Rain = 0
KST1 082125Z 34010KT 04/02 A3025 RMK A01 T00370016  RH  087%=      5-min Rain = 0
KST1 082130Z 35009KT 04/02 A3025 RMK A01 T00370016  RH  087%=      5-min Rain = 0
KST1 082135Z 35010KT 04/02 A3025 RMK A01 T00370015  RH  087%=      5-min Rain = 0
KST1 082140Z 34009KT 04/02 A3025 RMK A01 T00370015  RH  087%=      5-min Rain = 0
KST1 082145Z 34010KT 04/02 A3025 RMK A01 T00370016  RH  087%=      5-min Rain = 0
KST1 082150Z 34009KT 04/02 A3025 RMK A01 T00370016  RH  087%=      5-min Rain = 0
KST1 082155Z 33010KT 04/02 A3025 RMK A01 T00380017  RH  087%=      5-min Rain = 0
KST1 082200Z 35009KT 04/02 A3025 RMK A01 T00370016  RH  087%=      5-min Rain = 0
KST1 082205Z 35009KT 04/02 A3025 RMK A01 T00370016  RH  087%=      5-min Rain = 0
KST1 082210Z 35009KT 04/02 A3025 RMK A01 T00370016  RH  087%=      5-min Rain = 0
KST1 082215Z 34009KT 04/02 A3025 RMK A01 T00370016  RH  087%=      5-min Rain = 0
KST1 082220Z 34009KT 04/02 A3025 RMK A01 T00380017  RH  087%=      5-min Rain = 0
KST1 082225Z 35008KT 04/02 A3025 RMK A01 T00380016  RH  087%=      5-min Rain = 0
KST1 082230Z 36008KT 04/02 A3025 RMK A01 T00380017  RH  087%=      5-min Rain = 0
KST1 082235Z 35007KT 04/02 A3025 RMK A01 T00380018  RH  088%=      5-min Rain = 0
KST1 082240Z 35007KT 04/02 A3025 RMK A01 T00370017  RH  088%=      5-min Rain = 0
KST1 082245Z 34009KT 04/02 A3025 RMK A01 T00370017  RH  088%=      5-min Rain = 0
KST1 082250Z 35008KT 04/02 A3026 RMK A01 T00370016  RH  087%=      5-min Rain = 0
KST1 082255Z 34008KT 04/02 A3026 RMK A01 T00360015  RH  087%=      5-min Rain = 0
KST1 082300Z 35009KT 04/01 A3026 RMK A01 T00360014  RH  086%=      5-min Rain = 0
KST1 082305Z 33008KT 04/01 A3026 RMK A01 T00370014  RH  086%=      5-min Rain = 0
KST1 082310Z 34007KT 04/02 A3027 RMK A01 T00380015  RH  086%=      5-min Rain = 0
KST1 082315Z 34008KT 04/01 A3027 RMK A01 T00370014  RH  086%=      5-min Rain = 0
KST1 082320Z 34008KT 04/01 A3027 RMK A01 T00360013  RH  085%=      5-min Rain = 0
KST1 082325Z 34008KT 04/01 A3027 RMK A01 T00370013  RH  085%=      5-min Rain = 0
KST1 082330Z 34008KT 04/01 A3027 RMK A01 T00370013  RH  086%=      5-min Rain = 0
KST1 082335Z 34007KT 04/01 A3027 RMK A01 T00370014  RH  086%=      5-min Rain = 0
KST1 082340Z 34007KT 04/01 A3027 RMK A01 T00370014  RH  086%=      5-min Rain = 0
KST1 082345Z 34007KT 04/02 A3027 RMK A01 T00370015  RH  086%=      5-min Rain = 0
KST1 082350Z 34007KT 04/02 A3027 RMK A01 T00370015  RH  086%=      5-min Rain = 0
KST1 082355Z 34007KT 04/01 A3027 RMK A01 T00370014  RH  086%=      5-min Rain = 0
KST1 090000Z 34007KT 04/01 A3027 RMK A01 T00370014  RH  086%=      5-min Rain = 0
KST1 090005Z 34007KT 04/01 A3027 RMK A01 T00360014  RH  086%=      5-min Rain = 0
KST1 090010Z 34006KT 04/01 A3027 RMK A01 T00370014  RH  086%=      5-min Rain = 0
KST1 090015Z 34006KT 04/01 A3027 RMK A01 T00370014  RH  086%=      5-min Rain = 0
KST1 090020Z 34005KT 04/02 A3027 RMK A01 T00370015  RH  086%=      5-min Rain = 0
KST1 090025Z 34005KT 04/02 A3027 RMK A01 T00380016  RH  086%=      5-min Rain = 0
KST1 090030Z 34005KT 04/02 A3027 RMK A01 T00370015  RH  087%=      5-min Rain = 0
KST1 090035Z 35005KT 04/02 A3027 RMK A01 T00370015  RH  086%=      5-min Rain = 0
KST1 090040Z 34004KT 04/02 A3027 RMK A01 T00370015  RH  086%=      5-min Rain = 0
KST1 090045Z 34005KT 04/02 A3027 RMK A01 T00370015  RH  086%=      5-min Rain = 0
KST1 090050Z 34004KT 04/01 A3027 RMK A01 T00380014  RH  086%=      5-min Rain = 0
KST1 090055Z 34005KT 04/02 A3027 RMK A01 T00380015  RH  086%=      5-min Rain = 0
KST1 090100Z 35004KT 04/02 A3027 RMK A01 T00380016  RH  086%=      5-min Rain = 0
KST1 090105Z 35004KT 04/02 A3027 RMK A01 T00380016  RH  087%=      5-min Rain = 0
KST1 090110Z 35004KT 04/02 A3027 RMK A01 T00370016  RH  087%=      5-min Rain = 0
KST1 090115Z 34004KT 04/02 A3027 RMK A01 T00380016  RH  086%=      5-min Rain = 0
KST1 090120Z 35004KT 04/02 A3027 RMK A01 T00380016  RH  086%=      5-min Rain = 0
KST1 090125Z 35004KT 04/02 A3028 RMK A01 T00380016  RH  087%=      5-min Rain = 0
KST1 090130Z 32005KT 04/02 A3028 RMK A01 T00380016  RH  087%=      5-min Rain = 0
KST1 090135Z 33006KT 04/02 A3028 RMK A01 T00390015  RH  085%=      5-min Rain = 0
KST1 090140Z 33005KT 04/02 A3028 RMK A01 T00400015  RH  084%=      5-min Rain = 0
KST1 090145Z 32006KT 04/01 A3028 RMK A01 T00400014  RH  084%=      5-min Rain = 0
KST1 090150Z 31006KT 04/01 A3028 RMK A01 T00400014  RH  084%=      5-min Rain = 0
KST1 090155Z 32006KT 04/02 A3028 RMK A01 T00400015  RH  085%=      5-min Rain = 0
KST1 090200Z 32006KT 04/02 A3028 RMK A01 T00410016  RH  085%=      5-min Rain = 0
KST1 090205Z 32005KT 04/02 A3029 RMK A01 T00400016  RH  085%=      5-min Rain = 0
KST1 090210Z 32004KT 04/02 A3029 RMK A01 T00400016  RH  085%=      5-min Rain = 0
KST1 090215Z 33006KT 04/02 A3029 RMK A01 T00410016  RH  085%=      5-min Rain = 0
KST1 090220Z 33006KT 04/01 A3029 RMK A01 T00400014  RH  084%=      5-min Rain = 0
KST1 090225Z 32006KT 04/01 A3029 RMK A01 T00410014  RH  083%=      5-min Rain = 0
KST1 090230Z 32006KT 04/01 A3029 RMK A01 T00410014  RH  083%=      5-min Rain = 0
KST1 090235Z 33006KT 04/01 A3029 RMK A01 T00410014  RH  083%=      5-min Rain = 0
KST1 090240Z 33005KT 04/02 A303 RMK A01 T00420015  RH  084%=      5-min Rain = 0
KST1 090245Z 32005KT 04/02 A303 RMK A01 T00410015  RH  084%=      5-min Rain = 0
KST1 090250Z 32005KT 04/02 A303 RMK A01 T00410015  RH  084%=      5-min Rain = 0
KST1 090255Z 31005KT 04/02 A303 RMK A01 T00410016  RH  085%=      5-min Rain = 0
KST1 090300Z 31005KT 04/02 A303 RMK A01 T00410016  RH  084%=      5-min Rain = 0
KST1 090305Z 31004KT 04/02 A303 RMK A01 T00410016  RH  085%=      5-min Rain = 0
KST1 090310Z 31004KT 04/02 A303 RMK A01 T00410017  RH  085%=      5-min Rain = 0
KST1 090315Z 32005KT 04/02 A303 RMK A01 T00410017  RH  085%=      5-min Rain = 0
KST1 090320Z 32005KT 04/02 A303 RMK A01 T00410017  RH  085%=      5-min Rain = 0
KST1 090325Z 31007KT 04/01 A303 RMK A01 T00410014  RH  084%=      5-min Rain = 0
KST1 090330Z 32007KT 04/01 A303 RMK A01 T00410013  RH  083%=      5-min Rain = 0
KST1 090335Z 34006KT 04/01 A303 RMK A01 T00420013  RH  083%=      5-min Rain = 0
KST1 090340Z 32007KT 04/01 A303 RMK A01 T00420014  RH  083%=      5-min Rain = 0
KST1 090345Z 32006KT 04/02 A303 RMK A01 T00410015  RH  084%=      5-min Rain = 0
KST1 090350Z 32006KT 04/02 A303 RMK A01 T00410015  RH  084%=      5-min Rain = 0
KST1 090355Z 32007KT 04/01 A3031 RMK A01 T00410013  RH  083%=      5-min Rain = 0
KST1 090400Z 33007KT 04/01 A3031 RMK A01 T00410013  RH  083%=      5-min Rain = 0
KST1 090405Z 33008KT 04/01 A3031 RMK A01 T00410012  RH  082%=      5-min Rain = 0
KST1 090410Z 33008KT 04/01 A3031 RMK A01 T00410011  RH  082%=      5-min Rain = 0
KST1 090415Z 33008KT 04/01 A3031 RMK A01 T00410010  RH  082%=      5-min Rain = 0
KST1 090420Z 32008KT 04/01 A3031 RMK A01 T00410010  RH  082%=      5-min Rain = 0
KST1 090425Z 32009KT 04/01 A3031 RMK A01 T00400010  RH  082%=      5-min Rain = 0
KST1 090430Z 32009KT 04/01 A3031 RMK A01 T00400007  RH  080%=      5-min Rain = 0
KST1 090435Z 34008KT 04/01 A3031 RMK A01 T00400008  RH  080%=      5-min Rain = 0
KST1 090440Z 33008G13KT 04/01 A3031 RMK A01 T00400010  RH  082%=      5-min Rain = 0
KST1 090445Z 33008KT 04/01 A3031 RMK A01 T00400008  RH  081%=      5-min Rain = 0
KST1 090450Z 33008KT 04/01 A3031 RMK A01 T00400008  RH  081%=      5-min Rain = 0
KST1 090455Z 31008KT 04/01 A3031 RMK A01 T00400008  RH  081%=      5-min Rain = 0
KST1 090500Z 32006KT 04/01 A3031 RMK A01 T00400008  RH  081%=      5-min Rain = 0
KST1 090505Z 31008KT 04/01 A3031 RMK A01 T00390008  RH  081%=      5-min Rain = 0
KST1 090510Z 32009KT 04/01 A3031 RMK A01 T00400008  RH  081%=      5-min Rain = 0
KST1 090515Z 33009KT 04/01 A3031 RMK A01 T00400009  RH  082%=      5-min Rain = 0
KST1 090520Z 33010KT 04/01 A3031 RMK A01 T00400008  RH  081%=      5-min Rain = 0
KST1 090525Z 32008KT 04/01 A3031 RMK A01 T00400008  RH  080%=      5-min Rain = 0
KST1 090530Z 31009KT 04/01 A3031 RMK A01 T00400008  RH  081%=      5-min Rain = 0
KST1 090535Z 31008KT 04/01 A3031 RMK A01 T00400008  RH  080%=      5-min Rain = 0
KST1 090540Z 30007KT 04/01 A3031 RMK A01 T00400009  RH  081%=      5-min Rain = 0
KST1 090545Z 31006KT 04/01 A3031 RMK A01 T00400010  RH  082%=      5-min Rain = 0
KST1 090550Z 32008KT 04/01 A3031 RMK A01 T00390008  RH  082%=      5-min Rain = 0
KST1 090555Z 32008KT 04/01 A3031 RMK A01 T00390007  RH  081%=      5-min Rain = 0

Page generated in 0.0094 seconds.